Pagrindinis puslapis
METAR-TAF:

METAR-TAF

Oro uostai :

Bergamo oro uostas

Bergamas, Italija

platuma: 45-40N, ilguma: 009-42E, Aukštis: 238 m

Dabartinis oras

Ataskaita buvo paskelbta 26 minutes, ne 18:20 UTC
Vėjas 2 kt iš Rytų
Temperatūra 18°C
Drėgmė 73%
Slėgis 1021 hPa
Matomumas 10 km arba daugiau
Su prošvaistėmis ne aukštis 6000 ft

METAR: LIME 191820Z 10002KT 9999 BKN060 18/13 Q1021 NOSIG

Laikas: 20:46 (18:46 UTC)

Prognozė

Ataskaita buvo paskelbta 1 valandą ir 46 minutes, ne 17:00 UTC
Prognozė galioja nuo 19 metu 18 UTC su 20 metu 18 UTC
Vėjas 5 kt nuo kintamojo kryptimis
Matomumas 10 km arba daugiau
Išsisklaidę debesys ne aukštis 6000 ft

TAF: LIME 191700Z 1918/2018 VRB05KT 9999 SCT060

Orai ataskaitas ir orų prognozės (METAR, TAF).

turimą stotys yra geltonos ir raudonos taškus žemėlapyje.

Perkelti pele per norėdami pamatyti stoties vardą.

Tada spustelėkite, norėdami matyti oro stebėjimo ir prognozės.

Norėdami pakeisti žemėlapį: spustelėkite ant žalios mygtukų su juodo kryžiaus žemyn,; žalią mygtuką su brūkšneliu, jei norite nutolinti; arba žalių rodyklių gretimoms žemėlapius.


METAR-TAF: